createdAt,value
2024-01-29T00:00:17.137Z,102484.41
2024-01-29T00:03:29.909Z,102484.50
2024-01-29T00:06:42.510Z,102485.44
2024-01-29T00:09:55.424Z,102481.53
2024-01-29T00:13:07.853Z,102482.31
2024-01-29T00:16:20.583Z,102478.91
2024-01-29T00:19:33.155Z,102468.00
2024-01-29T00:22:46.332Z,102467.19
2024-01-29T00:25:58.752Z,102464.94
2024-01-29T00:29:12.485Z,102470.69
2024-01-29T00:32:25.024Z,102461.88
2024-01-29T00:35:38.294Z,102459.47
2024-01-29T00:38:50.821Z,102459.63
2024-01-29T00:42:03.796Z,102470.75
2024-01-29T00:45:16.255Z,102479.69
2024-01-29T00:48:29.006Z,102484.28
2024-01-29T00:51:41.716Z,102498.25
2024-01-29T00:54:54.414Z,102511.19
2024-01-29T00:58:07.157Z,102510.84
2024-01-29T01:01:19.965Z,102499.69
2024-01-29T01:04:32.690Z,102492.66
2024-01-29T01:07:45.447Z,102503.72
2024-01-29T01:10:57.928Z,102507.00
2024-01-29T01:14:10.639Z,102516.31
2024-01-29T01:17:23.084Z,102515.00
2024-01-29T01:20:36.019Z,102508.50
2024-01-29T01:23:48.390Z,102496.97
2024-01-29T01:27:01.066Z,102506.19
2024-01-29T01:30:13.651Z,102493.25
2024-01-29T01:33:26.352Z,102486.97
2024-01-29T01:36:38.929Z,102503.69
2024-01-29T01:39:54.840Z,102509.66
2024-01-29T01:43:23.260Z,102506.41
2024-01-29T01:46:36.011Z,102507.22
2024-01-29T01:49:49.108Z,102507.97
2024-01-29T01:53:02.014Z,102495.69
2024-01-29T01:56:14.609Z,102495.34
2024-01-29T01:59:27.400Z,102480.78
2024-01-29T02:02:39.729Z,102491.94
2024-01-29T02:05:52.629Z,102481.16
2024-01-29T02:09:06.999Z,102483.56
2024-01-29T02:12:22.199Z,102490.38
2024-01-29T02:15:34.911Z,102493.59
2024-01-29T02:18:47.596Z,102492.25
2024-01-29T02:22:00.200Z,102490.22
2024-01-29T02:25:15.738Z,102482.34
2024-01-29T02:28:29.201Z,102483.87
2024-01-29T02:31:44.304Z,102486.44
2024-01-29T02:34:56.753Z,102484.03
2024-01-29T02:38:09.504Z,102479.59
2024-01-29T02:41:22.378Z,102486.56
2024-01-29T02:44:35.047Z,102479.31
2024-01-29T02:47:47.458Z,102474.69
2024-01-29T02:51:00.135Z,102479.59
2024-01-29T02:54:12.622Z,102475.19
2024-01-29T02:57:25.648Z,102483.72
2024-01-29T03:00:38.242Z,102480.19
2024-01-29T03:03:51.100Z,102479.88
2024-01-29T03:07:03.606Z,102478.84
2024-01-29T03:10:16.490Z,102475.38
2024-01-29T03:13:28.936Z,102477.69
2024-01-29T03:16:41.615Z,102482.81
2024-01-29T03:19:54.131Z,102478.19
2024-01-29T03:23:06.946Z,102483.19
2024-01-29T03:26:19.361Z,102481.97
2024-01-29T03:29:32.473Z,102480.50
2024-01-29T03:32:44.922Z,102479.59
2024-01-29T03:35:57.602Z,102483.91
2024-01-29T03:39:10.011Z,102487.78
2024-01-29T03:42:22.729Z,102486.50
2024-01-29T03:45:35.282Z,102482.94
2024-01-29T03:48:48.172Z,102476.38
2024-01-29T03:52:00.719Z,102476.38
2024-01-29T03:55:13.652Z,102478.06
2024-01-29T03:58:26.234Z,102481.16
2024-01-29T04:01:39.933Z,102489.38
2024-01-29T04:04:53.038Z,102484.34
2024-01-29T04:08:06.093Z,102483.31
2024-01-29T04:11:18.772Z,102491.47
2024-01-29T04:14:31.865Z,102489.72
2024-01-29T04:17:44.622Z,102493.09
2024-01-29T04:20:57.077Z,102492.75
2024-01-29T04:24:13.017Z,102497.50
2024-01-29T04:27:25.438Z,102495.59
2024-01-29T04:30:41.393Z,102498.44
2024-01-29T04:33:53.962Z,102486.66
2024-01-29T04:37:06.748Z,102504.75
2024-01-29T04:40:19.173Z,102506.78
2024-01-29T04:43:31.829Z,102506.31
2024-01-29T04:46:44.216Z,102508.88
2024-01-29T04:49:56.934Z,102505.91
2024-01-29T04:53:13.597Z,102503.56
2024-01-29T04:56:26.291Z,102506.31
2024-01-29T04:59:38.660Z,102511.50
2024-01-29T05:02:51.333Z,102512.72
2024-01-29T05:06:03.905Z,102514.16
2024-01-29T05:09:18.596Z,102518.56
2024-01-29T05:12:32.320Z,102513.06
2024-01-29T05:15:45.197Z,102512.41
2024-01-29T05:18:58.553Z,102498.06
2024-01-29T05:22:11.300Z,102497.19
2024-01-29T05:25:23.733Z,102508.41
2024-01-29T05:28:36.435Z,102510.66
2024-01-29T05:31:48.932Z,102506.50
2024-01-29T05:35:03.035Z,102508.09
2024-01-29T05:38:15.715Z,102508.19
2024-01-29T05:41:29.558Z,102514.44
2024-01-29T05:44:42.537Z,102507.66
2024-01-29T05:47:55.300Z,102504.63
2024-01-29T05:51:07.701Z,102503.66
2024-01-29T05:54:23.307Z,102509.75
2024-01-29T05:57:35.883Z,102502.97
2024-01-29T06:00:48.739Z,102505.75
2024-01-29T06:04:01.591Z,102504.06
2024-01-29T06:07:14.054Z,102508.53
2024-01-29T06:10:26.876Z,102506.16
2024-01-29T06:13:39.994Z,102505.28
2024-01-29T06:16:52.684Z,102509.44
2024-01-29T06:20:16.278Z,102506.06
2024-01-29T06:23:32.510Z,102516.44
2024-01-29T06:26:47.125Z,102516.34
2024-01-29T06:30:01.422Z,102524.91
2024-01-29T06:33:14.025Z,102529.38
2024-01-29T06:36:29.798Z,102537.63
2024-01-29T06:39:42.497Z,102539.66
2024-01-29T06:42:58.913Z,102540.22
2024-01-29T06:46:11.476Z,102542.00
2024-01-29T06:49:32.139Z,102544.34
2024-01-29T06:52:44.753Z,102551.22
2024-01-29T06:56:00.391Z,102548.78
2024-01-29T06:59:13.410Z,102544.53
2024-01-29T07:02:26.171Z,102546.94
2024-01-29T07:05:38.690Z,102550.41
2024-01-29T07:08:51.452Z,102551.84
2024-01-29T07:12:04.070Z,102560.50
2024-01-29T07:15:19.460Z,102558.81
2024-01-29T07:18:31.996Z,102571.12
2024-01-29T07:21:45.103Z,102564.78
2024-01-29T07:24:57.599Z,102564.63
2024-01-29T07:28:13.654Z,102576.59
2024-01-29T07:31:27.388Z,102573.09
2024-01-29T07:34:40.255Z,102574.84
2024-01-29T07:37:53.814Z,102555.69
2024-01-29T07:41:06.575Z,102560.44
2024-01-29T07:44:19.061Z,102566.03
2024-01-29T07:47:31.945Z,102561.34
2024-01-29T07:50:44.353Z,102555.72
2024-01-29T07:53:57.262Z,102550.81
2024-01-29T07:57:09.779Z,102547.09
2024-01-29T08:00:22.616Z,102558.19
2024-01-29T08:03:35.476Z,102547.22
2024-01-29T08:06:48.173Z,102554.09
2024-01-29T08:10:02.808Z,102539.63
2024-01-29T08:13:15.453Z,102544.47
2024-01-29T08:16:28.161Z,102553.34
2024-01-29T08:19:40.691Z,102557.31
2024-01-29T08:22:53.559Z,102560.66
2024-01-29T08:26:06.451Z,102555.78
2024-01-29T08:29:19.218Z,102553.75
2024-01-29T08:32:31.636Z,102547.19
2024-01-29T08:35:44.512Z,102562.59
2024-01-29T08:38:57.203Z,102560.09
2024-01-29T08:42:10.353Z,102557.81
2024-01-29T08:45:22.881Z,102562.66
2024-01-29T08:48:35.616Z,102558.41
2024-01-29T08:51:48.110Z,102563.06
2024-01-29T08:55:00.853Z,102559.34
2024-01-29T08:58:13.355Z,102565.56
2024-01-29T09:01:26.098Z,102557.44
2024-01-29T09:04:38.675Z,102560.44
2024-01-29T09:07:52.543Z,102555.44
2024-01-29T09:11:05.226Z,102563.09
2024-01-29T09:14:17.976Z,102566.47
2024-01-29T09:17:30.445Z,102563.75
2024-01-29T09:20:43.121Z,102575.56
2024-01-29T09:23:55.672Z,102582.25
2024-01-29T09:27:08.434Z,102575.31
2024-01-29T09:30:20.878Z,102584.56
2024-01-29T09:33:34.825Z,102577.94
2024-01-29T09:36:47.615Z,102584.06
2024-01-29T09:40:03.028Z,102580.03
2024-01-29T09:43:17.786Z,102574.50
2024-01-29T09:46:30.657Z,102578.84
2024-01-29T09:49:47.524Z,102578.00
2024-01-29T09:53:00.283Z,102564.72
2024-01-29T09:56:12.714Z,102576.03
2024-01-29T09:59:25.417Z,102574.25
2024-01-29T10:02:37.966Z,102576.25
2024-01-29T10:05:50.851Z,102572.31
2024-01-29T10:09:03.463Z,102569.19
2024-01-29T10:12:23.837Z,102571.91
2024-01-29T10:15:36.470Z,102570.06
2024-01-29T10:19:01.696Z,102567.78
2024-01-29T10:22:16.614Z,102558.38
2024-01-29T10:25:30.733Z,102559.13
2024-01-29T10:28:43.200Z,102557.25
2024-01-29T10:32:00.233Z,102552.25
2024-01-29T10:35:13.310Z,102542.84
2024-01-29T10:38:26.120Z,102548.63
2024-01-29T10:41:38.507Z,102546.34
2024-01-29T10:44:51.201Z,102549.44
2024-01-29T10:48:10.821Z,102545.63
2024-01-29T10:51:23.575Z,102537.25
2024-01-29T10:54:36.007Z,102544.87
2024-01-29T10:57:48.837Z,102542.16
2024-01-29T11:01:01.347Z,102541.25
2024-01-29T11:04:14.246Z,102538.75
2024-01-29T11:07:26.946Z,102532.47
2024-01-29T11:10:39.964Z,102524.22
2024-01-29T11:13:52.603Z,102519.62
2024-01-29T11:17:05.294Z,102513.56
2024-01-29T11:20:19.178Z,102518.31
2024-01-29T11:23:44.707Z,102513.72
2024-01-29T11:27:07.201Z,102506.78
2024-01-29T11:30:21.063Z,102498.97
2024-01-29T11:33:34.063Z,102489.41
2024-01-29T11:36:52.484Z,102492.50
2024-01-29T11:40:05.381Z,102496.03
2024-01-29T11:43:21.311Z,102494.09
2024-01-29T11:46:33.874Z,102494.47
2024-01-29T11:49:46.780Z,102489.00
2024-01-29T11:53:05.074Z,102483.75
2024-01-29T11:56:19.306Z,102488.84
2024-01-29T11:59:31.681Z,102480.84
2024-01-29T12:02:45.934Z,102480.50
2024-01-29T12:05:58.588Z,102485.72
2024-01-29T12:09:10.949Z,102482.66
2024-01-29T12:12:24.237Z,102479.59
2024-01-29T12:15:36.749Z,102478.69
2024-01-29T12:18:51.000Z,102474.88
2024-01-29T12:22:03.768Z,102472.06
2024-01-29T12:25:16.553Z,102466.41
2024-01-29T12:28:29.690Z,102469.25
2024-01-29T12:31:43.719Z,102468.28
2024-01-29T12:34:56.170Z,102462.94
2024-01-29T12:38:09.826Z,102464.50
2024-01-29T12:41:22.445Z,102456.00
2024-01-29T12:44:35.157Z,102463.94
2024-01-29T12:47:47.686Z,102458.78
2024-01-29T12:51:00.461Z,102461.97
2024-01-29T12:54:13.000Z,102452.84
2024-01-29T12:57:25.718Z,102458.19
2024-01-29T13:00:38.879Z,102453.13
2024-01-29T13:03:51.637Z,102453.03
2024-01-29T13:07:04.859Z,102455.72
2024-01-29T13:10:17.827Z,102450.53
2024-01-29T13:13:30.407Z,102450.53
2024-01-29T13:16:43.293Z,102450.37
2024-01-29T13:19:56.322Z,102451.13
2024-01-29T13:23:13.600Z,102442.50
2024-01-29T13:26:33.114Z,102455.84
2024-01-29T13:29:45.963Z,102448.81
2024-01-29T13:32:58.374Z,102458.72
2024-01-29T13:36:11.272Z,102453.34
2024-01-29T13:39:23.858Z,102451.56
2024-01-29T13:42:37.027Z,102459.09
2024-01-29T13:45:49.745Z,102450.03
2024-01-29T13:49:02.560Z,102456.47
2024-01-29T13:52:15.251Z,102460.41
2024-01-29T13:55:27.995Z,102456.81
2024-01-29T13:58:40.364Z,102455.56
2024-01-29T14:01:53.082Z,102453.13
2024-01-29T14:05:06.590Z,102454.78
2024-01-29T14:08:19.249Z,102462.00
2024-01-29T14:11:31.887Z,102461.44
2024-01-29T14:14:47.538Z,102465.09
2024-01-29T14:18:00.972Z,102458.25
2024-01-29T14:21:13.478Z,102454.47
2024-01-29T14:24:26.183Z,102449.81
2024-01-29T14:27:38.649Z,102449.47
2024-01-29T14:30:51.398Z,102452.38
2024-01-29T14:34:05.213Z,102451.53
2024-01-29T14:37:18.234Z,102446.41
2024-01-29T14:40:30.726Z,102445.00
2024-01-29T14:43:43.690Z,102449.91
2024-01-29T14:46:56.072Z,102441.38
2024-01-29T14:50:08.989Z,102436.13
2024-01-29T14:53:21.385Z,102434.25
2024-01-29T14:56:40.929Z,102435.50
2024-01-29T14:59:53.337Z,102444.13
2024-01-29T15:03:06.259Z,102440.19
2024-01-29T15:06:22.258Z,102448.31
2024-01-29T15:09:34.980Z,102449.75
2024-01-29T15:12:47.480Z,102462.31
2024-01-29T15:16:00.316Z,102461.50
2024-01-29T15:19:12.843Z,102468.97
2024-01-29T15:22:25.649Z,102467.34
2024-01-29T15:28:52.751Z,102467.34
2024-01-29T15:32:05.244Z,102471.72
2024-01-29T15:35:18.017Z,102479.16
2024-01-29T15:38:30.435Z,102480.28
2024-01-29T15:41:43.194Z,102475.69
2024-01-29T15:44:55.690Z,102471.44
2024-01-29T15:48:09.295Z,102484.00
2024-01-29T15:51:24.497Z,102486.06
2024-01-29T15:54:38.963Z,102487.56
2024-01-29T15:57:51.416Z,102486.53
2024-01-29T16:01:05.650Z,102493.38
2024-01-29T16:04:18.442Z,102492.72
2024-01-29T16:07:31.105Z,102499.25
2024-01-29T16:10:46.885Z,102489.75
2024-01-29T16:13:59.371Z,102488.91
2024-01-29T16:17:12.039Z,102493.81
2024-01-29T16:20:24.551Z,102492.81
2024-01-29T16:23:37.315Z,102498.38
2024-01-29T16:26:50.858Z,102500.03
2024-01-29T16:30:03.780Z,102494.03
2024-01-29T16:33:16.196Z,102500.09
2024-01-29T16:36:28.903Z,102509.03
2024-01-29T16:39:42.404Z,102505.25
2024-01-29T16:42:55.220Z,102510.28
2024-01-29T16:46:10.393Z,102501.41
2024-01-29T16:49:23.568Z,102492.00
2024-01-29T16:52:36.157Z,102492.72
2024-01-29T16:55:48.901Z,102498.56
2024-01-29T16:59:02.378Z,102510.72
2024-01-29T17:02:19.412Z,102510.47
2024-01-29T17:05:32.222Z,102506.50
2024-01-29T17:08:45.229Z,102513.34
2024-01-29T17:11:57.662Z,102504.37
2024-01-29T17:15:11.244Z,102515.84
2024-01-29T17:18:23.794Z,102521.16
2024-01-29T17:21:36.610Z,102519.66
2024-01-29T17:24:49.215Z,102525.25
2024-01-29T17:28:02.552Z,102523.25
2024-01-29T17:31:15.123Z,102526.69
2024-01-29T17:34:31.188Z,102537.00
2024-01-29T17:37:43.601Z,102531.09
2024-01-29T17:40:56.784Z,102538.97
2024-01-29T17:44:09.670Z,102538.63
2024-01-29T17:47:22.396Z,102545.37
2024-01-29T17:50:34.899Z,102545.13
2024-01-29T17:53:47.918Z,102542.25
2024-01-29T17:57:00.365Z,102543.16
2024-01-29T18:00:14.614Z,102548.59
2024-01-29T18:03:28.074Z,102543.03
2024-01-29T18:06:50.488Z,102545.84
2024-01-29T18:10:05.413Z,102547.63
2024-01-29T18:13:17.952Z,102545.66
2024-01-29T18:16:30.607Z,102544.97
2024-01-29T18:19:43.141Z,102546.94
2024-01-29T18:22:55.797Z,102541.22
2024-01-29T18:26:08.183Z,102534.31
2024-01-29T18:29:20.845Z,102540.88
2024-01-29T18:32:33.306Z,102544.22
2024-01-29T18:35:46.897Z,102550.34
2024-01-29T18:38:59.284Z,102544.91
2024-01-29T18:42:13.036Z,102555.22
2024-01-29T18:45:25.406Z,102553.69
2024-01-29T18:48:38.572Z,102552.63
2024-01-29T18:51:54.013Z,102540.06
2024-01-29T18:55:09.546Z,102546.72
2024-01-29T18:58:22.015Z,102552.28
2024-01-29T19:01:35.012Z,102548.91
2024-01-29T19:04:47.669Z,102558.59
2024-01-29T19:08:00.383Z,102551.69
2024-01-29T19:11:15.592Z,102564.78
2024-01-29T19:14:28.397Z,102565.81
2024-01-29T19:17:40.851Z,102570.97
2024-01-29T19:20:57.397Z,102564.91
2024-01-29T19:24:10.148Z,102566.09
2024-01-29T19:27:22.881Z,102572.31
2024-01-29T19:30:38.677Z,102572.50
2024-01-29T19:33:51.474Z,102576.28
2024-01-29T19:37:05.710Z,102582.47
2024-01-29T19:40:19.815Z,102577.56
2024-01-29T19:43:32.347Z,102586.47
2024-01-29T19:46:45.150Z,102585.97
2024-01-29T19:49:58.344Z,102586.88
2024-01-29T19:53:11.600Z,102592.22
2024-01-29T19:56:24.024Z,102591.59
2024-01-29T19:59:36.695Z,102602.75
2024-01-29T20:02:50.325Z,102601.22
2024-01-29T20:06:04.607Z,102599.56
2024-01-29T20:09:17.072Z,102601.47
2024-01-29T20:12:30.548Z,102603.28
2024-01-29T20:15:42.996Z,102605.94
2024-01-29T20:18:55.930Z,102610.84
2024-01-29T20:22:08.593Z,102603.66
2024-01-29T20:25:21.563Z,102605.84
2024-01-29T20:28:34.075Z,102613.66
2024-01-29T20:31:46.888Z,102608.50
2024-01-29T20:34:59.455Z,102604.38
2024-01-29T20:38:12.194Z,102606.41
2024-01-29T20:41:37.381Z,102604.59
2024-01-29T20:44:55.200Z,102606.63
2024-01-29T20:48:08.089Z,102607.72
2024-01-29T20:51:20.896Z,102602.87
2024-01-29T20:54:33.375Z,102603.09
2024-01-29T20:57:46.180Z,102605.63
2024-01-29T21:00:58.701Z,102609.13
2024-01-29T21:04:12.740Z,102608.47
2024-01-29T21:07:25.560Z,102607.75
2024-01-29T21:10:38.700Z,102606.97
2024-01-29T21:13:51.385Z,102606.31
2024-01-29T21:17:04.690Z,102608.16
2024-01-29T21:20:18.007Z,102607.53
2024-01-29T21:23:30.791Z,102605.03
2024-01-29T21:26:43.261Z,102612.16
2024-01-29T21:29:56.035Z,102606.81
2024-01-29T21:33:08.462Z,102609.31
2024-01-29T21:36:21.151Z,102607.78
2024-01-29T21:39:33.734Z,102603.72
2024-01-29T21:42:46.447Z,102611.56
2024-01-29T21:45:58.907Z,102622.87
2024-01-29T21:49:15.717Z,102615.63
2024-01-29T21:52:28.202Z,102619.19
2024-01-29T21:55:41.032Z,102621.94
2024-01-29T21:58:53.520Z,102616.56
2024-01-29T22:02:06.424Z,102624.31
2024-01-29T22:05:19.478Z,102628.66
2024-01-29T22:08:32.426Z,102622.78
2024-01-29T22:11:45.088Z,102628.81
2024-01-29T22:14:57.440Z,102628.81
2024-01-29T22:18:10.504Z,102630.84
2024-01-29T22:21:23.125Z,102632.53
2024-01-29T22:24:35.920Z,102625.50
2024-01-29T22:27:48.364Z,102631.62
2024-01-29T22:31:01.120Z,102622.41
2024-01-29T22:34:13.833Z,102631.62
2024-01-29T22:37:26.707Z,102624.84
2024-01-29T22:40:39.142Z,102624.34
2024-01-29T22:43:51.897Z,102631.06
2024-01-29T22:47:05.214Z,102627.63
2024-01-29T22:50:18.128Z,102630.06
2024-01-29T22:53:30.510Z,102628.62
2024-01-29T22:56:43.265Z,102627.97
2024-01-29T22:59:55.685Z,102620.72
2024-01-29T23:03:08.486Z,102625.97
2024-01-29T23:06:22.959Z,102623.50
2024-01-29T23:09:35.808Z,102632.06
2024-01-29T23:12:49.097Z,102629.84
2024-01-29T23:16:01.806Z,102632.41
2024-01-29T23:19:15.194Z,102639.38
2024-01-29T23:22:27.949Z,102633.66
2024-01-29T23:25:40.555Z,102635.47
2024-01-29T23:28:53.861Z,102636.97
2024-01-29T23:32:06.890Z,102640.47
2024-01-29T23:35:19.557Z,102635.53
2024-01-29T23:38:31.986Z,102635.31
2024-01-29T23:41:44.656Z,102636.22
2024-01-29T23:44:57.029Z,102631.97
2024-01-29T23:48:10.383Z,102634.75
2024-01-29T23:51:22.906Z,102637.81
2024-01-29T23:54:35.795Z,102637.06
2024-01-29T23:57:48.485Z,102633.91
